Mason Neck, Virginia
Current Conditions -  °F | °C
As of 2:58 PM on Thursday 30 Oct 2014 (Local Time) from KDAA Reporting Station
Clear Clear  
Wind Chill: 59°   Ceiling: Unl
Heat Index: 59°   Visibility: 10mi
Dew Point: 36°   Wind: 12mph
Humidity: 41%   Direction: 300°WNW
Pressure: 30.03"   Gusts: NA
Location:  38.6817°N, 77.2042°W
Report Text: KDAA 301858Z AUTO 30010KT 10SM CLR 15/02 A3003 RMK AO2 SLP173 T01510020
Loading
Personal Weather Stations






























Interactive Weather Map
Tropical Storm Tracking
New forecast layout! Learn more

10-Day Weather Forecast

Advertisements
Track Severe Weather on mobile